Time;durP1;ratioP1;P1;durP2;ratioP2;P2;SDS_P1;SDS_P2;PMS_P1;PMS_P2;Temp;Humidity;BMP_temperature;BMP_pressure;BME280_temperature;BME280_humidity;BME280_pressure;Samples;Min_cycle;Max_cycle;Signal;HPM_P1;HPM_P2
2023/10/18 00:01:35;;;;;;;;;;;2.30;99.90;;;;;;5070776;28;19921;-70
2023/10/18 00:04:01;;;;;;;;;;;2.30;99.90;;;;;;5072954;28;19920;-69
2023/10/18 00:06:28;;;;;;;;;;;2.30;99.90;;;;;;5074422;28;19948;-70
2023/10/18 00:08:58;;;;;;;;;;;2.30;99.90;;;;;;5073709;28;19995;-70
2023/10/18 00:11:26;;;;;;;;;;;2.40;99.90;;;;;;5071842;28;19920;-70
2023/10/18 00:13:53;;;;;;;;;;;2.40;99.90;;;;;;5073400;28;19928;-70
2023/10/18 00:16:21;;;;;;;;;;;2.30;99.90;;;;;;5071559;28;19920;-70
2023/10/18 00:18:47;;;;;;;;;;;2.30;99.90;;;;;;5070492;28;20226;-70
2023/10/18 00:21:14;;;;;;;;;;;2.30;99.90;;;;;;5073082;28;19995;-70
2023/10/18 00:23:43;;;;;;;;;;;2.30;99.90;;;;;;5071604;28;19921;-70
2023/10/18 00:26:11;;;;;;;;;;;2.30;99.90;;;;;;5072771;28;19951;-70
2023/10/18 00:28:38;;;;;;;;;;;2.20;99.90;;;;;;5072867;28;19920;-70
2023/10/18 00:31:16;;;;;;;;;;;2.20;99.90;;;;;;5074251;28;20210;-70
2023/10/18 00:33:44;;;;;;;;;;;2.20;99.90;;;;;;5071316;28;20214;-70
2023/10/18 00:36:11;;;;;;;;;;;2.20;99.90;;;;;;5072631;28;19952;-70
2023/10/18 00:38:39;;;;;;;;;;;2.20;99.90;;;;;;5070646;28;20107;-70
2023/10/18 00:41:09;;;;;;;;;;;2.20;99.90;;;;;;5072178;28;20145;-70
2023/10/18 00:43:37;;;;;;;;;;;2.10;99.90;;;;;;5070552;28;19928;-70
2023/10/18 00:46:06;;;;;;;;;;;2.10;99.90;;;;;;5075132;28;20004;-70
2023/10/18 00:48:35;;;;;;;;;;;2.10;99.90;;;;;;5070106;28;20297;-70
2023/10/18 00:51:02;;;;;;;;;;;2.10;99.90;;;;;;5073978;28;19958;-69
2023/10/18 00:53:31;;;;;;;;;;;2.10;99.90;;;;;;5065602;28;19921;-68
2023/10/18 00:55:59;;;;;;;;;;;2.10;99.90;;;;;;5072872;28;19927;-70
2023/10/18 00:58:27;;;;;;;;;;;2.10;99.90;;;;;;5070328;28;19921;-70
2023/10/18 01:00:56;;;;;;;;;;;2.10;99.90;;;;;;5070635;28;19942;-70
2023/10/18 01:03:32;;;;;;;;;;;2.10;99.90;;;;;;5070749;28;19920;-70
2023/10/18 01:06:03;;;;;;;;;;;2.10;99.90;;;;;;5072622;28;19928;-70
2023/10/18 01:08:30;;;;;;;;;;;2.10;99.90;;;;;;5073231;28;19920;-70
2023/10/18 01:11:01;;;;;;;;;;;2.10;99.90;;;;;;5072865;28;19921;-70
2023/10/18 01:13:28;;;;;;;;;;;2.10;99.90;;;;;;5065443;28;19983;-70
2023/10/18 01:15:57;;;;;;;;;;;2.10;99.90;;;;;;5071614;28;20246;-70
2023/10/18 01:18:23;;;;;;;;;;;2.10;99.90;;;;;;5070636;28;19921;-70
2023/10/18 01:20:50;;;;;;;;;;;2.10;99.90;;;;;;5071863;28;20118;-70
2023/10/18 01:23:17;;;;;;;;;;;2.10;99.90;;;;;;5071233;28;19955;-70
2023/10/18 01:25:45;;;;;;;;;;;2.10;99.90;;;;;;5073490;28;19967;-70
2023/10/18 01:28:11;;;;;;;;;;;2.00;99.90;;;;;;5070543;28;19924;-70
2023/10/18 01:30:38;;;;;;;;;;;2.00;99.90;;;;;;5068283;28;20114;-70
2023/10/18 01:33:10;;;;;;;;;;;2.00;99.90;;;;;;5075729;28;19924;-70
2023/10/18 01:35:39;;;;;;;;;;;2.00;99.90;;;;;;5069217;28;20206;-69
2023/10/18 01:38:13;;;;;;;;;;;1.90;99.90;;;;;;5073652;28;20008;-70
2023/10/18 01:40:52;;;;;;;;;;;2.00;99.90;;;;;;5070202;28;19927;-70
2023/10/18 01:43:20;;;;;;;;;;;1.90;99.90;;;;;;5070998;28;19963;-71
2023/10/18 01:45:49;;;;;;;;;;;1.90;99.90;;;;;;5070488;28;19952;-70
2023/10/18 01:48:18;;;;;;;;;;;1.90;99.90;;;;;;5069625;28;20213;-70
2023/10/18 01:50:45;;;;;;;;;;;1.90;99.90;;;;;;5070838;28;19921;-70
2023/10/18 01:53:16;;;;;;;;;;;1.90;99.90;;;;;;5070449;28;19927;-70
2023/10/18 01:55:46;;;;;;;;;;;1.90;99.90;;;;;;5073138;28;19920;-70
2023/10/18 01:58:13;;;;;;;;;;;1.90;99.90;;;;;;5071452;28;19927;-70
2023/10/18 02:00:46;;;;;;;;;;;1.90;99.90;;;;;;5073399;28;19921;-70
2023/10/18 02:03:13;;;;;;;;;;;1.80;99.90;;;;;;5071892;28;19966;-69
2023/10/18 02:05:39;;;;;;;;;;;1.80;99.90;;;;;;5069095;28;19935;-70
2023/10/18 02:08:06;;;;;;;;;;;1.80;99.90;;;;;;5072370;28;20095;-70
2023/10/18 02:10:34;;;;;;;;;;;1.80;99.90;;;;;;5069493;28;20234;-70
2023/10/18 02:13:01;;;;;;;;;;;1.80;99.90;;;;;;5071072;28;19925;-70
2023/10/18 02:15:30;;;;;;;;;;;1.90;99.90;;;;;;5079097;28;19927;-70
2023/10/18 02:17:58;;;;;;;;;;;1.90;99.90;;;;;;5072085;28;19920;-68
2023/10/18 02:20:28;;;;;;;;;;;1.90;99.90;;;;;;5069849;28;20182;-70
2023/10/18 02:22:59;;;;;;;;;;;1.90;99.90;;;;;;5070231;28;19956;-70
2023/10/18 02:25:37;;;;;;;;;;;2.00;99.90;;;;;;5071029;28;19928;-69
2023/10/18 02:28:08;;;;;;;;;;;2.00;99.90;;;;;;5074625;28;19927;-70
2023/10/18 02:30:35;;;;;;;;;;;2.00;99.90;;;;;;5073338;28;19988;-71
2023/10/18 02:33:04;;;;;;;;;;;2.00;99.90;;;;;;5075158;28;19971;-70
2023/10/18 02:35:31;;;;;;;;;;;2.00;99.90;;;;;;5077161;28;19921;-70
2023/10/18 02:37:57;;;;;;;;;;;2.00;99.90;;;;;;5075526;28;19968;-70
2023/10/18 02:40:30;;;;;;;;;;;2.00;99.90;;;;;;5073764;28;19927;-70
2023/10/18 02:42:58;;;;;;;;;;;2.00;99.90;;;;;;5075567;28;19921;-70
2023/10/18 02:45:24;;;;;;;;;;;2.10;99.90;;;;;;5072769;28;19921;-70
2023/10/18 02:47:51;;;;;;;;;;;2.00;99.90;;;;;;5074786;28;19984;-70
2023/10/18 02:50:20;;;;;;;;;;;2.00;99.90;;;;;;5074499;28;19927;-70
2023/10/18 02:52:47;;;;;;;;;;;2.00;99.90;;;;;;5073842;28;19962;-69
2023/10/18 02:55:13;;;;;;;;;;;2.00;99.90;;;;;;5073947;28;19979;-70
2023/10/18 02:57:42;;;;;;;;;;;1.90;99.90;;;;;;5076134;28;19920;-69
2023/10/18 03:00:11;;;;;;;;;;;1.90;99.90;;;;;;5079438;28;19920;-70
2023/10/18 03:02:38;;;;;;;;;;;1.90;99.90;;;;;;5072882;28;20114;-70
2023/10/18 03:05:06;;;;;;;;;;;1.90;99.90;;;;;;5075298;28;19935;-70
2023/10/18 03:07:34;;;;;;;;;;;1.90;99.90;;;;;;5075073;28;19962;-70
2023/10/18 03:10:11;;;;;;;;;;;1.90;99.90;;;;;;5075775;28;20225;-70
2023/10/18 03:12:38;;;;;;;;;;;1.90;99.90;;;;;;5069131;28;19921;-70
2023/10/18 03:15:08;;;;;;;;;;;1.90;99.90;;;;;;5075469;28;19921;-70
2023/10/18 03:17:36;;;;;;;;;;;1.90;99.90;;;;;;5079931;28;20206;-70
2023/10/18 03:20:09;;;;;;;;;;;1.90;99.90;;;;;;5085482;28;19921;-70
2023/10/18 03:22:42;;;;;;;;;;;1.90;99.90;;;;;;5079343;28;20110;-70
2023/10/18 03:25:16;;;;;;;;;;;1.90;99.90;;;;;;5078165;28;20117;-70
2023/10/18 03:27:50;;;;;;;;;;;1.90;99.90;;;;;;5073114;28;19983;-70
2023/10/18 03:30:18;;;;;;;;;;;1.90;99.90;;;;;;5074059;28;19927;-70
2023/10/18 03:32:49;;;;;;;;;;;1.90;99.90;;;;;;5089625;28;20193;-70
2023/10/18 03:35:20;;;;;;;;;;;1.80;99.90;;;;;;5078268;28;19920;-70
2023/10/18 03:37:48;;;;;;;;;;;1.80;99.90;;;;;;5072869;28;20264;-70
2023/10/18 03:40:20;;;;;;;;;;;1.80;99.90;;;;;;5078710;28;19962;-70
2023/10/18 03:42:46;;;;;;;;;;;1.70;99.90;;;;;;5074060;28;20289;-70
2023/10/18 03:45:20;;;;;;;;;;;1.70;99.90;;;;;;5071401;28;19920;-70
2023/10/18 03:47:57;;;;;;;;;;;1.70;99.90;;;;;;5073259;28;19928;-70
2023/10/18 03:50:29;;;;;;;;;;;1.70;99.90;;;;;;5072000;28;19927;-70
2023/10/18 03:52:57;;;;;;;;;;;1.70;99.90;;;;;;5073901;28;20218;-71
2023/10/18 03:55:36;;;;;;;;;;;1.70;99.90;;;;;;5073751;28;20145;-70
2023/10/18 03:58:05;;;;;;;;;;;1.70;99.90;;;;;;5074673;28;19920;-71
2023/10/18 04:00:39;;;;;;;;;;;1.70;99.90;;;;;;5071689;28;19921;-70
2023/10/18 04:03:08;;;;;;;;;;;1.70;99.90;;;;;;5074879;28;19920;-70
2023/10/18 04:05:41;;;;;;;;;;;1.70;99.90;;;;;;5070660;28;19917;-70
2023/10/18 04:08:13;;;;;;;;;;;1.70;99.90;;;;;;5075551;28;19921;-71
2023/10/18 04:10:40;;;;;;;;;;;1.70;99.90;;;;;;5071734;28;19956;-71
2023/10/18 04:13:12;;;;;;;;;;;1.70;99.90;;;;;;5074005;28;19920;-71
2023/10/18 04:15:39;;;;;;;;;;;1.70;99.90;;;;;;5070911;28;19921;-70
2023/10/18 04:18:12;;;;;;;;;;;1.70;99.90;;;;;;5077851;28;19921;-70
2023/10/18 04:20:42;;;;;;;;;;;1.70;99.90;;;;;;5072290;28;19921;-70
2023/10/18 04:23:14;;;;;;;;;;;1.70;99.90;;;;;;5076807;28;20149;-70
2023/10/18 04:25:41;;;;;;;;;;;1.70;99.90;;;;;;5073824;28;19968;-70
2023/10/18 04:28:09;;;;;;;;;;;1.70;99.90;;;;;;5073765;28;19983;-70
2023/10/18 04:30:37;;;;;;;;;;;1.70;99.90;;;;;;5071022;28;19928;-70
2023/10/18 04:33:14;;;;;;;;;;;1.70;99.90;;;;;;5074319;28;19925;-70
2023/10/18 04:35:45;;;;;;;;;;;1.70;99.90;;;;;;5071802;28;20211;-71
2023/10/18 04:38:22;;;;;;;;;;;1.70;99.90;;;;;;5076460;28;19984;-70
2023/10/18 04:40:55;;;;;;;;;;;1.70;99.90;;;;;;5075664;28;19920;-71
2023/10/18 04:43:27;;;;;;;;;;;1.60;99.90;;;;;;5071637;28;20127;-70
2023/10/18 04:45:57;;;;;;;;;;;1.60;99.90;;;;;;5071858;28;20118;-71
2023/10/18 04:48:59;;;;;;;;;;;1.60;99.90;;;;;;5071057;28;19933;-71
2023/10/18 04:51:26;;;;;;;;;;;1.60;99.90;;;;;;5074532;28;19943;-72
2023/10/18 04:53:56;;;;;;;;;;;1.60;99.90;;;;;;5070786;28;19921;-71
2023/10/18 04:56:29;;;;;;;;;;;1.60;99.90;;;;;;5070572;28;19929;-70
2023/10/18 04:58:59;;;;;;;;;;;1.60;99.90;;;;;;5074164;28;20207;-70
2023/10/18 05:01:32;;;;;;;;;;;1.60;99.90;;;;;;5090546;28;19920;-70
2023/10/18 05:04:01;;;;;;;;;;;1.60;99.90;;;;;;5081795;28;19924;-70
2023/10/18 05:06:29;;;;;;;;;;;1.60;99.90;;;;;;5069908;28;19929;-70
2023/10/18 05:08:57;;;;;;;;;;;1.60;99.90;;;;;;5072214;28;20109;-69
2023/10/18 05:11:22;;;;;;;;;;;1.60;99.90;;;;;;5070663;28;19928;-70
2023/10/18 05:13:49;;;;;;;;;;;1.60;99.90;;;;;;5069996;28;20264;-69
2023/10/18 05:16:16;;;;;;;;;;;1.60;99.90;;;;;;5082630;28;19926;-70
2023/10/18 05:18:44;;;;;;;;;;;1.60;99.90;;;;;;5083282;28;19921;-70
2023/10/18 05:21:12;;;;;;;;;;;1.60;99.90;;;;;;5083574;28;20099;-72
2023/10/18 05:23:41;;;;;;;;;;;1.60;99.90;;;;;;5083037;28;19928;-69
2023/10/18 05:26:17;;;;;;;;;;;1.60;99.90;;;;;;5082593;28;19951;-69
2023/10/18 05:28:52;;;;;;;;;;;1.50;99.90;;;;;;5083421;28;20118;-69
2023/10/18 05:31:43;;;;;;;;;;;1.50;99.90;;;;;;5083512;28;19937;-69
2023/10/18 05:34:19;;;;;;;;;;;1.50;99.90;;;;;;5080792;28;19920;-71
2023/10/18 05:37:13;;;;;;;;;;;1.50;99.90;;;;;;5083095;28;19920;-70
2023/10/18 05:39:58;;;;;;;;;;;1.50;99.90;;;;;;5079798;28;19921;-70
2023/10/18 05:42:25;;;;;;;;;;;1.50;99.90;;;;;;5083266;28;19924;-69
2023/10/18 05:44:52;;;;;;;;;;;1.50;99.90;;;;;;5082991;28;19924;-69
2023/10/18 05:47:19;;;;;;;;;;;1.40;99.90;;;;;;5083514;28;19927;-69
2023/10/18 05:49:45;;;;;;;;;;;1.40;99.90;;;;;;5083275;28;19948;-70
2023/10/18 05:52:22;;;;;;;;;;;1.40;99.90;;;;;;5083081;28;19952;-69
2023/10/18 05:54:49;;;;;;;;;;;1.40;99.90;;;;;;5082913;28;19928;-70
2023/10/18 05:57:19;;;;;;;;;;;1.40;99.90;;;;;;5083107;28;20309;-69
2023/10/18 05:59:48;;;;;;;;;;;1.40;99.90;;;;;;5086418;28;19921;-69
2023/10/18 06:02:22;;;;;;;;;;;1.40;99.90;;;;;;5087347;28;19924;-68
2023/10/18 06:04:50;;;;;;;;;;;1.40;99.90;;;;;;5086166;28;19987;-69
2023/10/18 06:07:18;;;;;;;;;;;1.40;99.90;;;;;;5086916;28;19928;-68
2023/10/18 06:09:46;;;;;;;;;;;1.50;99.90;;;;;;5087257;28;19920;-69
2023/10/18 06:12:15;;;;;;;;;;;1.50;99.90;;;;;;5087143;28;20023;-73
2023/10/18 06:14:44;;;;;;;;;;;1.50;99.90;;;;;;5086547;28;19978;-71
2023/10/18 06:17:19;;;;;;;;;;;1.50;99.90;;;;;;5087001;28;19978;-70
2023/10/18 06:19:47;;;;;;;;;;;1.50;99.90;;;;;;5086675;28;19995;-71
2023/10/18 06:22:17;;;;;;;;;;;1.50;99.90;;;;;;5082333;28;19921;-70
2023/10/18 06:24:48;;;;;;;;;;;1.50;99.90;;;;;;5085530;28;19927;-69
2023/10/18 06:27:16;;;;;;;;;;;1.50;99.90;;;;;;5088431;28;20111;-70
2023/10/18 06:29:45;;;;;;;;;;;1.50;99.90;;;;;;5090712;28;19926;-70
2023/10/18 06:32:15;;;;;;;;;;;1.60;99.90;;;;;;5081273;28;19924;-70
2023/10/18 06:34:43;;;;;;;;;;;1.60;99.90;;;;;;5085582;28;19920;-72
2023/10/18 06:37:20;;;;;;;;;;;1.60;99.90;;;;;;5085883;28;19920;-70
2023/10/18 06:39:47;;;;;;;;;;;1.60;99.90;;;;;;5085920;28;19927;-71
2023/10/18 06:42:13;;;;;;;;;;;1.60;99.90;;;;;;5086085;28;20000;-70
2023/10/18 06:44:43;;;;;;;;;;;1.60;99.90;;;;;;5085572;28;19951;-70
2023/10/18 06:47:13;;;;;;;;;;;1.70;99.90;;;;;;5086229;28;20211;-71
2023/10/18 06:49:42;;;;;;;;;;;1.70;99.90;;;;;;5089567;28;19928;-70
2023/10/18 06:52:09;;;;;;;;;;;1.70;99.90;;;;;;5085872;28;19921;-70
2023/10/18 06:54:38;;;;;;;;;;;1.70;99.90;;;;;;5085644;28;19927;-70
2023/10/18 06:57:15;;;;;;;;;;;1.80;99.90;;;;;;5087375;28;20173;-70
2023/10/18 06:59:44;;;;;;;;;;;1.90;99.90;;;;;;5085952;28;19920;-71
2023/10/18 07:02:12;;;;;;;;;;;1.90;99.90;;;;;;5085692;28;19962;-70
2023/10/18 07:04:39;;;;;;;;;;;1.90;99.90;;;;;;5084989;28;19924;-70
2023/10/18 07:07:11;;;;;;;;;;;1.90;99.90;;;;;;5087212;28;19920;-70
2023/10/18 07:09:38;;;;;;;;;;;1.90;99.90;;;;;;5085326;28;19974;-71
2023/10/18 07:12:05;;;;;;;;;;;1.90;99.90;;;;;;5085345;28;19928;-71
2023/10/18 07:14:31;;;;;;;;;;;1.90;99.90;;;;;;5085368;28;19920;-70
2023/10/18 07:17:01;;;;;;;;;;;2.00;99.90;;;;;;5084524;28;20226;-71
2023/10/18 07:19:29;;;;;;;;;;;2.10;99.90;;;;;;5090337;28;19921;-70
2023/10/18 07:21:57;;;;;;;;;;;2.20;99.90;;;;;;5085151;28;19951;-70
2023/10/18 07:24:32;;;;;;;;;;;2.30;99.90;;;;;;5083614;28;19974;-70
2023/10/18 07:27:00;;;;;;;;;;;2.40;99.90;;;;;;5085069;28;19960;-70
2023/10/18 07:29:28;;;;;;;;;;;2.40;99.90;;;;;;5084864;28;19921;-70
2023/10/18 07:31:59;;;;;;;;;;;2.50;99.90;;;;;;5085544;28;19921;-71
2023/10/18 07:34:28;;;;;;;;;;;2.60;99.90;;;;;;5084383;28;19920;-71
2023/10/18 07:36:55;;;;;;;;;;;2.60;99.90;;;;;;5084930;28;19924;-70
2023/10/18 07:39:24;;;;;;;;;;;2.60;99.90;;;;;;5083138;28;19970;-70
2023/10/18 07:41:52;;;;;;;;;;;2.70;99.90;;;;;;5083467;28;19958;-70
2023/10/18 07:44:19;;;;;;;;;;;2.80;99.90;;;;;;5070162;28;20210;-70
2023/10/18 07:46:46;;;;;;;;;;;2.80;99.90;;;;;;5081424;28;19920;-70
2023/10/18 07:49:14;;;;;;;;;;;2.90;99.90;;;;;;5075310;28;19952;-69
2023/10/18 07:51:48;;;;;;;;;;;3.00;99.90;;;;;;5082129;28;19921;-70
2023/10/18 07:54:15;;;;;;;;;;;3.10;99.90;;;;;;5073538;28;19983;-70
2023/10/18 07:56:48;;;;;;;;;;;3.20;99.90;;;;;;5077939;28;19927;-70
2023/10/18 07:59:29;;;;;;;;;;;3.20;99.90;;;;;;5068363;28;20110;-70
2023/10/18 08:02:09;;;;;;;;;;;3.30;99.90;;;;;;5065714;28;19921;-69
2023/10/18 08:04:36;;;;;;;;;;;3.30;99.90;;;;;;5077395;28;19956;-69
2023/10/18 08:07:03;;;;;;;;;;;3.40;99.90;;;;;;5078047;28;19959;-70
2023/10/18 08:09:30;;;;;;;;;;;3.50;99.90;;;;;;5079298;28;19955;-69
2023/10/18 08:12:04;;;;;;;;;;;3.50;99.90;;;;;;5077870;28;19920;-69
2023/10/18 08:14:33;;;;;;;;;;;3.60;99.90;;;;;;5068280;28;19988;-70
2023/10/18 08:17:08;;;;;;;;;;;3.60;99.90;;;;;;5079640;28;19971;-70
2023/10/18 08:19:43;;;;;;;;;;;3.70;99.90;;;;;;5068854;28;20214;-70
2023/10/18 08:22:22;;;;;;;;;;;3.80;99.90;;;;;;5076105;28;19921;-70
2023/10/18 08:24:50;;;;;;;;;;;3.90;99.90;;;;;;5065536;28;19998;-70
2023/10/18 08:27:18;;;;;;;;;;;3.90;99.90;;;;;;5075366;28;19920;-70
2023/10/18 08:29:52;;;;;;;;;;;4.00;99.90;;;;;;5070835;28;19927;-70
2023/10/18 08:32:29;;;;;;;;;;;4.10;99.90;;;;;;5078433;28;19991;-70
2023/10/18 08:34:56;;;;;;;;;;;4.10;99.90;;;;;;5078335;28;19943;-70
2023/10/18 08:37:24;;;;;;;;;;;4.20;99.90;;;;;;5071395;28;19964;-70
2023/10/18 08:39:55;;;;;;;;;;;4.30;99.90;;;;;;5077689;28;19935;-70
2023/10/18 08:42:25;;;;;;;;;;;4.40;99.90;;;;;;5074926;28;20218;-70
2023/10/18 08:44:55;;;;;;;;;;;4.60;99.90;;;;;;5077119;28;19987;-70
2023/10/18 08:47:24;;;;;;;;;;;4.60;99.90;;;;;;5076107;28;19920;-70
2023/10/18 08:49:51;;;;;;;;;;;4.70;99.90;;;;;;5076614;28;19948;-70
2023/10/18 08:52:20;;;;;;;;;;;4.90;99.90;;;;;;5078624;28;19927;-70
2023/10/18 08:54:47;;;;;;;;;;;5.00;99.90;;;;;;5080056;28;19966;-70
2023/10/18 08:57:15;;;;;;;;;;;5.10;99.90;;;;;;5078177;28;19921;-70
2023/10/18 08:59:46;;;;;;;;;;;5.20;99.90;;;;;;5075363;28;19921;-70
2023/10/18 09:02:17;;;;;;;;;;;5.30;99.90;;;;;;5077708;28;20214;-70
2023/10/18 09:04:45;;;;;;;;;;;5.40;99.90;;;;;;5068030;28;20249;-70
2023/10/18 09:07:21;;;;;;;;;;;5.50;99.90;;;;;;5076588;28;19951;-70
2023/10/18 09:09:55;;;;;;;;;;;5.60;99.90;;;;;;5077047;28;19924;-70
2023/10/18 09:12:31;;;;;;;;;;;5.70;99.90;;;;;;5073152;28;19980;-70
2023/10/18 09:14:58;;;;;;;;;;;5.80;99.90;;;;;;5078938;28;19920;-70
2023/10/18 09:17:26;;;;;;;;;;;5.90;99.90;;;;;;5077943;28;20260;-70
2023/10/18 09:19:55;;;;;;;;;;;6.00;99.90;;;;;;5077129;28;19980;-70
2023/10/18 09:22:22;;;;;;;;;;;6.00;99.90;;;;;;5075333;28;19988;-70
2023/10/18 09:24:49;;;;;;;;;;;6.10;99.90;;;;;;5076212;28;19951;-71
2023/10/18 09:27:16;;;;;;;;;;;6.30;99.90;;;;;;5078807;28;19920;-70
2023/10/18 09:29:44;;;;;;;;;;;6.40;99.90;;;;;;5076320;28;19925;-70
2023/10/18 09:32:24;;;;;;;;;;;6.50;99.90;;;;;;5079740;28;19984;-70
2023/10/18 09:34:52;;;;;;;;;;;6.60;99.90;;;;;;5076666;28;19928;-70
2023/10/18 09:37:29;;;;;;;;;;;6.70;99.90;;;;;;5078035;28;19980;-70
2023/10/18 09:39:56;;;;;;;;;;;6.80;99.90;;;;;;5076228;28;19928;-70
2023/10/18 09:42:23;;;;;;;;;;;7.00;99.90;;;;;;5078157;28;20008;-70
2023/10/18 09:44:50;;;;;;;;;;;7.10;99.90;;;;;;5074073;28;19920;-70
2023/10/18 09:47:17;;;;;;;;;;;7.20;99.90;;;;;;5080052;28;19920;-70
2023/10/18 09:49:46;;;;;;;;;;;7.30;99.90;;;;;;5076112;28;19970;-69
2023/10/18 09:52:15;;;;;;;;;;;7.40;99.90;;;;;;5077890;28;19920;-70
2023/10/18 09:54:46;;;;;;;;;;;7.60;99.90;;;;;;5078423;28;19959;-70
2023/10/18 09:57:18;;;;;;;;;;;7.70;99.90;;;;;;5074612;28;19920;-70
2023/10/18 09:59:47;;;;;;;;;;;7.80;99.90;;;;;;5077748;28;19927;-69
2023/10/18 10:02:16;;;;;;;;;;;7.90;99.90;;;;;;5078029;28;20110;-70
2023/10/18 10:04:43;;;;;;;;;;;8.00;99.90;;;;;;5078338;28;19921;-70
2023/10/18 10:07:37;;;;;;;;;;;8.10;99.90;;;;;;5077898;28;19921;-70
2023/10/18 10:10:09;;;;;;;;;;;8.20;99.90;;;;;;5076311;28;20218;-71
2023/10/18 10:12:36;;;;;;;;;;;8.40;99.90;;;;;;5076385;28;19920;-70
2023/10/18 10:15:13;;;;;;;;;;;8.50;99.90;;;;;;5073204;28;19960;-70
2023/10/18 10:17:41;;;;;;;;;;;8.60;99.90;;;;;;5073520;28;19920;-69
2023/10/18 10:20:11;;;;;;;;;;;8.70;99.90;;;;;;5077611;28;19921;-70
2023/10/18 10:22:38;;;;;;;;;;;8.80;99.90;;;;;;5082886;28;20210;-70
2023/10/18 10:25:11;;;;;;;;;;;9.00;99.90;;;;;;5079429;28;20095;-70
2023/10/18 10:27:49;;;;;;;;;;;9.20;99.90;;;;;;5082367;28;19928;-70
2023/10/18 10:30:25;;;;;;;;;;;9.40;99.90;;;;;;5073715;28;20152;-70
2023/10/18 10:32:53;;;;;;;;;;;9.50;99.90;;;;;;5084013;28;19939;-69
2023/10/18 10:35:24;;;;;;;;;;;9.60;99.90;;;;;;5079733;28;20233;-71
2023/10/18 10:37:51;;;;;;;;;;;9.60;99.90;;;;;;5077379;28;19959;-70
2023/10/18 10:40:39;;;;;;;;;;;9.60;99.90;;;;;;5073855;28;19920;-71
2023/10/18 10:43:09;;;;;;;;;;;9.70;99.90;;;;;;5075637;28;19929;-72
2023/10/18 10:45:38;;;;;;;;;;;9.80;99.90;;;;;;5078453;28;20095;-71
2023/10/18 10:48:30;;;;;;;;;;;10.00;99.90;;;;;;5083759;28;19916;-71
2023/10/18 10:51:06;;;;;;;;;;;10.10;99.90;;;;;;5085662;28;19921;-71
2023/10/18 10:53:35;;;;;;;;;;;10.20;99.90;;;;;;5085543;28;19998;-71
2023/10/18 10:56:16;;;;;;;;;;;10.10;99.90;;;;;;5084845;28;20218;-71
2023/10/18 10:58:45;;;;;;;;;;;10.00;99.90;;;;;;5082811;28;19927;-71
2023/10/18 11:01:15;;;;;;;;;;;10.00;99.90;;;;;;5085480;28;19987;-71
2023/10/18 11:03:54;;;;;;;;;;;10.00;99.90;;;;;;5084964;28;19924;-71
2023/10/18 11:06:21;;;;;;;;;;;10.20;99.90;;;;;;5085202;28;19951;-72
2023/10/18 11:08:48;;;;;;;;;;;10.40;99.90;;;;;;5085336;28;19966;-71
2023/10/18 11:11:16;;;;;;;;;;;10.60;99.90;;;;;;5085300;28;20436;-71
2023/10/18 11:13:45;;;;;;;;;;;10.90;99.90;;;;;;5085420;28;20209;-70
2023/10/18 11:16:12;;;;;;;;;;;11.00;99.90;;;;;;5084695;28;20164;-71
2023/10/18 11:18:42;;;;;;;;;;;11.00;99.90;;;;;;5085175;28;19927;-71
2023/10/18 11:21:18;;;;;;;;;;;11.00;99.90;;;;;;5082629;28;19927;-71
2023/10/18 11:23:46;;;;;;;;;;;11.00;99.90;;;;;;5083456;28;20087;-71
2023/10/18 11:26:19;;;;;;;;;;;11.00;99.90;;;;;;5083018;28;19921;-71
2023/10/18 11:28:47;;;;;;;;;;;11.00;99.90;;;;;;5085444;28;19956;-72
2023/10/18 11:31:14;;;;;;;;;;;11.10;99.90;;;;;;5084953;28;19991;-71
2023/10/18 11:33:57;;;;;;;;;;;11.10;99.90;;;;;;5084538;28;19926;-71
2023/10/18 11:36:27;;;;;;;;;;;11.20;99.90;;;;;;5084294;28;19939;-72
2023/10/18 11:39:18;;;;;;;;;;;11.30;99.90;;;;;;5084558;28;20174;-71
2023/10/18 11:41:45;;;;;;;;;;;11.50;99.90;;;;;;5082193;28;19952;-70
2023/10/18 11:44:26;;;;;;;;;;;11.80;99.90;;;;;;5084508;28;19927;-71
2023/10/18 11:46:56;;;;;;;;;;;11.90;99.90;;;;;;5083712;28;19920;-71
2023/10/18 11:49:24;;;;;;;;;;;12.00;99.90;;;;;;5084283;28;19921;-71
2023/10/18 11:51:53;;;;;;;;;;;12.10;99.90;;;;;;5084389;28;19920;-71
2023/10/18 11:54:30;;;;;;;;;;;12.10;99.90;;;;;;5074901;28;19920;-71
2023/10/18 11:56:57;;;;;;;;;;;12.10;99.90;;;;;;5084694;28;19928;-71
2023/10/18 11:59:25;;;;;;;;;;;12.10;99.90;;;;;;5077823;28;20242;-71
2023/10/18 12:01:55;;;;;;;;;;;12.20;99.90;;;;;;5077734;28;20194;-71
2023/10/18 12:04:27;;;;;;;;;;;12.30;99.90;;;;;;5079966;28;19953;-72
2023/10/18 12:06:54;;;;;;;;;;;12.40;99.90;;;;;;5076249;28;19921;-70
2023/10/18 12:09:26;;;;;;;;;;;12.50;99.90;;;;;;5071798;28;19921;-70
2023/10/18 12:11:53;;;;;;;;;;;12.50;99.90;;;;;;5073036;28;19920;-70
2023/10/18 12:14:22;;;;;;;;;;;12.60;99.90;;;;;;5073034;28;19956;-70
2023/10/18 12:16:51;;;;;;;;;;;12.70;99.90;;;;;;5074148;28;20099;-70
2023/10/18 12:19:18;;;;;;;;;;;12.70;99.90;;;;;;5072495;28;19920;-70
2023/10/18 12:21:48;;;;;;;;;;;12.80;99.90;;;;;;5071996;28;19964;-70
2023/10/18 12:24:15;;;;;;;;;;;12.90;99.90;;;;;;5075900;28;19921;-70
2023/10/18 12:26:45;;;;;;;;;;;12.80;99.90;;;;;;5070959;28;19967;-70
2023/10/18 12:29:15;;;;;;;;;;;12.80;99.90;;;;;;5073046;28;19924;-70
2023/10/18 12:31:52;;;;;;;;;;;12.80;99.90;;;;;;5070865;28;20268;-69
2023/10/18 12:34:28;;;;;;;;;;;12.90;99.90;;;;;;5080566;28;19920;-70
2023/10/18 12:36:57;;;;;;;;;;;13.10;99.90;;;;;;5073633;28;20095;-70
2023/10/18 12:39:25;;;;;;;;;;;13.20;99.90;;;;;;5069526;28;19928;-70
2023/10/18 12:41:53;;;;;;;;;;;13.40;99.90;;;;;;5072424;28;20003;-70
2023/10/18 12:44:21;;;;;;;;;;;13.40;99.90;;;;;;5071463;28;19920;-70
2023/10/18 12:46:50;;;;;;;;;;;13.50;99.90;;;;;;5069260;28;19921;-70
2023/10/18 12:49:22;;;;;;;;;;;13.50;99.90;;;;;;5070842;28;19983;-70
2023/10/18 12:51:59;;;;;;;;;;;13.50;99.90;;;;;;5073754;28;19921;-70
2023/10/18 12:54:33;;;;;;;;;;;13.50;99.90;;;;;;5071788;28;20135;-70
2023/10/18 12:57:09;;;;;;;;;;;13.50;99.90;;;;;;5073028;28;19958;-70
2023/10/18 12:59:39;;;;;;;;;;;13.70;99.90;;;;;;5066104;28;19928;-70
2023/10/18 13:02:11;;;;;;;;;;;14.10;99.90;;;;;;5070757;28;19963;-69
2023/10/18 13:04:38;;;;;;;;;;;14.40;99.90;;;;;;5086042;28;20114;-70
2023/10/18 13:07:19;;;;;;;;;;;14.70;99.90;;;;;;5079223;28;19917;-71
2023/10/18 13:09:46;;;;;;;;;;;14.80;99.90;;;;;;5087981;28;20287;-70
2023/10/18 13:12:16;;;;;;;;;;;14.80;99.90;;;;;;5083177;28;19931;-70
2023/10/18 13:14:41;;;;;;;;;;;14.80;99.90;;;;;;5081738;28;19920;-70
2023/10/18 13:17:10;;;;;;;;;;;14.80;99.90;;;;;;5083015;28;19916;-70
2023/10/18 13:19:41;;;;;;;;;;;14.90;99.90;;;;;;5083053;28;20162;-70
2023/10/18 13:22:17;;;;;;;;;;;14.80;99.90;;;;;;5082690;28;19927;-71
2023/10/18 13:24:44;;;;;;;;;;;14.80;99.90;;;;;;5082261;28;19928;-70
2023/10/18 13:27:15;;;;;;;;;;;14.90;99.90;;;;;;5082687;28;19927;-71
2023/10/18 13:29:48;;;;;;;;;;;15.00;99.90;;;;;;5082738;28;20210;-70
2023/10/18 13:32:15;;;;;;;;;;;15.00;99.90;;;;;;5082841;28;19921;-72
2023/10/18 13:34:43;;;;;;;;;;;15.00;99.90;;;;;;5082262;28;20405;-71
2023/10/18 13:37:12;;;;;;;;;;;15.00;99.90;;;;;;5082939;28;19943;-70
2023/10/18 13:39:39;;;;;;;;;;;14.90;99.90;;;;;;5082996;28;19963;-70
2023/10/18 13:42:06;;;;;;;;;;;15.00;99.90;;;;;;5082824;28;19927;-70
2023/10/18 13:44:32;;;;;;;;;;;15.10;99.90;;;;;;5082223;28;19979;-69
2023/10/18 13:47:00;;;;;;;;;;;15.00;99.90;;;;;;5082246;28;19967;-70
2023/10/18 13:49:27;;;;;;;;;;;15.00;99.90;;;;;;5083771;28;19966;-70
2023/10/18 13:51:54;;;;;;;;;;;14.90;99.90;;;;;;5083409;28;19921;-69
2023/10/18 13:54:22;;;;;;;;;;;14.90;99.90;;;;;;5081936;28;19921;-73
2023/10/18 13:56:50;;;;;;;;;;;14.80;99.90;;;;;;5079903;28;19924;-70
2023/10/18 13:59:17;;;;;;;;;;;14.80;99.90;;;;;;5067546;28;20256;-70
2023/10/18 14:01:44;;;;;;;;;;;14.70;99.90;;;;;;5070125;28;19928;-69
2023/10/18 14:04:13;;;;;;;;;;;14.50;99.90;;;;;;5071771;28;19939;-69
2023/10/18 14:06:40;;;;;;;;;;;14.40;99.90;;;;;;5068968;28;19967;-69
2023/10/18 14:09:10;;;;;;;;;;;14.20;99.90;;;;;;5071248;28;19959;-69
2023/10/18 14:11:40;;;;;;;;;;;14.10;99.90;;;;;;5069537;28;19952;-68
2023/10/18 14:14:08;;;;;;;;;;;14.00;99.90;;;;;;5072951;28;20245;-69
2023/10/18 14:16:37;;;;;;;;;;;13.90;99.90;;;;;;5067459;28;19963;-71
2023/10/18 14:19:05;;;;;;;;;;;13.70;99.90;;;;;;5073098;28;19924;-68
2023/10/18 14:21:32;;;;;;;;;;;13.70;99.90;;;;;;5075493;28;19920;-69
2023/10/18 14:24:00;;;;;;;;;;;13.50;99.90;;;;;;5079135;28;19947;-69
2023/10/18 14:26:28;;;;;;;;;;;13.40;99.90;;;;;;5072741;28;19920;-74
2023/10/18 14:28:58;;;;;;;;;;;13.40;99.90;;;;;;5075322;28;19956;-70
2023/10/18 14:31:25;;;;;;;;;;;13.30;99.90;;;;;;5073841;28;19933;-70
2023/10/18 14:33:53;;;;;;;;;;;13.30;99.90;;;;;;5078005;28;19984;-70
2023/10/18 14:36:20;;;;;;;;;;;13.30;99.90;;;;;;5074203;28;19932;-69
2023/10/18 14:38:47;;;;;;;;;;;13.30;99.90;;;;;;5076199;28;19921;-70
2023/10/18 14:41:20;;;;;;;;;;;13.30;99.90;;;;;;5078352;28;19995;-70
2023/10/18 14:43:47;;;;;;;;;;;13.30;99.90;;;;;;5075770;28;19921;-70